createdAt,value
2018-07-03T00:01:07.247Z,101551.38
2018-07-03T00:03:36.729Z,101555.14
2018-07-03T00:06:06.329Z,101550.17
2018-07-03T00:08:35.789Z,101549.28
2018-07-03T00:11:05.260Z,101558.49
2018-07-03T00:13:35.596Z,101553.91
2018-07-03T00:16:05.277Z,101549.31
2018-07-03T00:18:34.759Z,101552.62
2018-07-03T00:21:04.295Z,101557.14
2018-07-03T00:23:33.758Z,101556.98
2018-07-03T00:26:03.969Z,101556.03
2018-07-03T00:28:33.462Z,101560.52
2018-07-03T00:31:03.005Z,101554.36
2018-07-03T00:33:32.180Z,101553.91
2018-07-03T00:36:01.626Z,101552.75
2018-07-03T00:38:31.217Z,101555.66
2018-07-03T00:41:00.393Z,101553.59
2018-07-03T00:43:29.946Z,101546.50
2018-07-03T00:45:59.454Z,101550.75
2018-07-03T00:48:28.907Z,101547.34
2018-07-03T00:50:58.514Z,101548.20
2018-07-03T00:53:27.968Z,101553.18
2018-07-03T00:55:57.489Z,101553.52
2018-07-03T00:58:27.383Z,101549.69
2018-07-03T01:00:56.878Z,101545.05
2018-07-03T01:03:26.018Z,101546.17
2018-07-03T01:05:55.486Z,101551.56
2018-07-03T01:08:25.007Z,101551.53
2018-07-03T01:10:54.445Z,101546.08
2018-07-03T01:13:23.867Z,101554.38
2018-07-03T01:15:53.414Z,101550.59
2018-07-03T01:18:22.887Z,101551.06
2018-07-03T01:20:52.354Z,101540.66
2018-07-03T01:23:21.851Z,101544.89
2018-07-03T01:25:51.473Z,101544.05
2018-07-03T01:28:20.945Z,101535.69
2018-07-03T01:30:50.405Z,101541.95
2018-07-03T01:33:19.882Z,101531.55
2018-07-03T01:35:49.453Z,101532.74
2018-07-03T01:38:18.677Z,101540.17
2018-07-03T01:40:48.242Z,101537.55
2018-07-03T01:43:17.832Z,101542.14
2018-07-03T01:45:47.329Z,101538.86
2018-07-03T01:48:16.756Z,101540.45
2018-07-03T01:50:46.195Z,101532.03
2018-07-03T01:53:15.693Z,101537.45
2018-07-03T01:55:44.904Z,101539.48
2018-07-03T01:58:14.428Z,101530.68
2018-07-03T02:00:44.274Z,101534.74
2018-07-03T02:03:13.729Z,101529.66
2018-07-03T02:05:43.250Z,101530.84
2018-07-03T02:08:12.752Z,101530.73
2018-07-03T02:10:42.196Z,101524.92
2018-07-03T02:13:11.670Z,101525.39
2018-07-03T02:15:41.165Z,101523.84
2018-07-03T02:18:10.849Z,101518.73
2018-07-03T02:20:40.416Z,101517.70
2018-07-03T02:23:09.942Z,101516.48
2018-07-03T02:25:39.381Z,101511.81
2018-07-03T02:28:08.584Z,101510.12
2018-07-03T02:30:38.090Z,101512.66
2018-07-03T02:33:07.571Z,101515.16
2018-07-03T02:35:37.189Z,101508.88
2018-07-03T02:38:06.360Z,101509.72
2018-07-03T02:40:35.858Z,101511.93
2018-07-03T02:49:53.226Z,101509.81
2018-07-03T02:52:22.730Z,101515.66
2018-07-03T02:54:52.261Z,101511.95
2018-07-03T02:57:21.730Z,101512.83
2018-07-03T02:59:51.179Z,101499.89
2018-07-03T03:02:20.719Z,101505.65
2018-07-03T03:04:50.197Z,101510.44
2018-07-03T03:07:19.741Z,101509.67
2018-07-03T03:09:49.301Z,101506.33
2018-07-03T03:12:18.858Z,101504.63
2018-07-03T03:14:48.657Z,101511.80
2018-07-03T03:17:18.178Z,101508.48
2018-07-03T03:19:47.652Z,101510.14
2018-07-03T03:22:17.152Z,101509.83
2018-07-03T03:24:46.643Z,101503.63
2018-07-03T03:27:16.105Z,101511.69
2018-07-03T03:29:45.588Z,101508.83
2018-07-03T03:32:15.058Z,101515.08
2018-07-03T03:34:44.649Z,101511.69
2018-07-03T03:37:14.116Z,101509.16
2018-07-03T03:39:43.542Z,101508.78
2018-07-03T03:42:13.127Z,101506.33
2018-07-03T03:44:42.631Z,101505.92
2018-07-03T03:47:12.179Z,101506.41
2018-07-03T03:49:41.639Z,101513.06
2018-07-03T03:52:11.261Z,101506.02
2018-07-03T03:54:40.755Z,101512.80
2018-07-03T03:57:10.296Z,101505.00
2018-07-03T03:59:39.846Z,101503.91
2018-07-03T04:02:09.259Z,101504.87
2018-07-03T04:04:38.730Z,101499.56
2018-07-03T04:07:08.647Z,101503.89
2018-07-03T04:09:38.109Z,101498.48
2018-07-03T04:12:08.234Z,101496.10
2018-07-03T04:14:37.863Z,101498.30
2018-07-03T04:17:07.408Z,101502.11
2018-07-03T04:19:36.993Z,101502.59
2018-07-03T04:22:06.525Z,101503.14
2018-07-03T04:24:35.979Z,101501.37
2018-07-03T04:27:05.605Z,101507.86
2018-07-03T04:29:35.514Z,101500.39
2018-07-03T04:32:05.170Z,101506.34
2018-07-03T04:34:34.730Z,101510.16
2018-07-03T04:37:04.562Z,101511.84
2018-07-03T04:39:34.107Z,101515.64
2018-07-03T04:42:03.722Z,101518.59
2018-07-03T04:44:33.215Z,101514.02
2018-07-03T04:47:02.712Z,101517.38
2018-07-03T04:49:32.809Z,101509.02
2018-07-03T04:52:02.670Z,101513.61
2018-07-03T04:54:32.521Z,101513.62
2018-07-03T04:57:02.596Z,101510.70
2018-07-03T04:59:32.232Z,101515.73
2018-07-03T05:02:02.314Z,101512.39
2018-07-03T05:04:31.781Z,101516.98
2018-07-03T05:07:01.261Z,101514.91
2018-07-03T05:09:30.847Z,101508.64
2018-07-03T05:12:00.091Z,101510.30
2018-07-03T05:14:29.522Z,101511.56
2018-07-03T05:16:59.765Z,101507.81
2018-07-03T05:19:30.789Z,101507.80
2018-07-03T05:22:00.371Z,101503.60
2018-07-03T05:24:29.793Z,101506.53
2018-07-03T05:26:59.188Z,101511.16
2018-07-03T05:29:28.731Z,101505.72
2018-07-03T05:31:58.112Z,101501.94
2018-07-03T05:34:27.589Z,101507.78
2018-07-03T05:36:57.285Z,101514.91
2018-07-03T05:39:26.815Z,101516.99
2018-07-03T05:41:56.442Z,101517.44
2018-07-03T05:44:25.986Z,101515.75
2018-07-03T05:46:55.416Z,101513.62
2018-07-03T05:49:25.190Z,101521.59
2018-07-03T05:51:54.636Z,101521.13
2018-07-03T05:54:24.394Z,101516.09
2018-07-03T05:56:53.985Z,101521.50
2018-07-03T05:59:24.026Z,101516.88
2018-07-03T06:01:53.677Z,101520.19
2018-07-03T06:04:23.300Z,101517.20
2018-07-03T06:06:52.841Z,101515.55
2018-07-03T06:09:23.169Z,101523.06
2018-07-03T06:11:52.655Z,101521.37
2018-07-03T06:14:22.374Z,101522.11
2018-07-03T06:16:55.294Z,101521.66
2018-07-03T06:19:27.408Z,101521.64
2018-07-03T06:21:57.272Z,101518.70
2018-07-03T06:24:26.773Z,101514.47
2018-07-03T06:26:56.265Z,101521.11
2018-07-03T06:29:25.778Z,101523.59
2018-07-03T06:31:55.400Z,101526.03
2018-07-03T06:34:24.845Z,101523.50
2018-07-03T06:36:54.309Z,101524.71
2018-07-03T06:39:23.791Z,101525.48
2018-07-03T06:41:53.284Z,101524.06
2018-07-03T06:44:22.899Z,101522.36
2018-07-03T06:46:52.381Z,101523.14
2018-07-03T06:49:21.827Z,101520.53
2018-07-03T06:51:51.447Z,101522.58
2018-07-03T06:54:20.996Z,101521.33
2018-07-03T06:56:50.493Z,101511.55
2018-07-03T06:59:20.045Z,101519.48
2018-07-03T07:01:49.563Z,101515.18
2018-07-03T07:04:19.048Z,101517.64
2018-07-03T07:06:48.573Z,101520.77
2018-07-03T07:09:18.050Z,101517.44
2018-07-03T07:11:47.711Z,101517.52
2018-07-03T07:14:17.142Z,101523.64
2018-07-03T07:16:46.608Z,101526.08
2018-07-03T07:19:16.156Z,101526.83
2018-07-03T07:21:45.578Z,101521.09
2018-07-03T07:24:15.633Z,101524.55
2018-07-03T07:26:45.053Z,101518.34
2018-07-03T07:29:14.584Z,101523.02
2018-07-03T07:31:44.173Z,101514.87
2018-07-03T07:36:43.229Z,101518.39
2018-07-03T07:39:13.531Z,101523.11
2018-07-03T07:41:42.881Z,101526.42
2018-07-03T07:44:12.383Z,101526.44
2018-07-03T07:46:41.892Z,101521.08
2018-07-03T07:49:12.278Z,101526.41
2018-07-03T07:51:41.749Z,101521.53
2018-07-03T07:54:11.254Z,101521.68
2018-07-03T07:56:41.017Z,101524.75
2018-07-03T07:59:10.545Z,101518.09
2018-07-03T08:01:40.388Z,101523.61
2018-07-03T08:04:09.882Z,101523.61
2018-07-03T08:06:39.461Z,101519.64
2018-07-03T08:09:10.679Z,101515.73
2018-07-03T08:11:39.844Z,101514.67
2018-07-03T08:14:09.318Z,101519.84
2018-07-03T08:16:38.956Z,101514.29
2018-07-03T08:19:08.532Z,101514.94
2018-07-03T08:21:37.949Z,101514.19
2018-07-03T08:24:07.465Z,101507.30
2018-07-03T08:26:37.047Z,101508.51
2018-07-03T08:29:06.569Z,101509.71
2018-07-03T08:31:36.189Z,101511.55
2018-07-03T08:34:06.567Z,101515.16
2018-07-03T08:36:36.224Z,101509.34
2018-07-03T08:39:08.658Z,101506.09
2018-07-03T08:41:37.818Z,101509.39
2018-07-03T08:44:07.310Z,101513.42
2018-07-03T08:46:37.651Z,101510.91
2018-07-03T08:49:07.982Z,101510.19
2018-07-03T08:51:37.921Z,101505.31
2018-07-03T08:54:07.217Z,101503.67
2018-07-03T08:56:36.508Z,101503.74
2018-07-03T08:59:06.833Z,101498.56
2018-07-03T09:01:36.273Z,101506.56
2018-07-03T09:04:05.796Z,101508.33
2018-07-03T09:06:35.241Z,101500.47
2018-07-03T09:09:07.992Z,101507.31
2018-07-03T09:11:37.753Z,101505.55
2018-07-03T09:14:07.686Z,101497.16
2018-07-03T09:16:37.635Z,101493.67
2018-07-03T09:19:07.172Z,101492.72
2018-07-03T09:21:36.648Z,101492.63
2018-07-03T09:24:06.265Z,101492.36
2018-07-03T09:26:35.731Z,101495.50
2018-07-03T09:29:05.266Z,101485.64
2018-07-03T09:31:34.753Z,101482.94
2018-07-03T09:34:04.789Z,101471.98
2018-07-03T09:36:34.386Z,101471.08
2018-07-03T09:39:04.227Z,101473.53
2018-07-03T09:41:33.755Z,101476.38
2018-07-03T09:44:03.419Z,101465.86
2018-07-03T09:46:32.983Z,101462.92
2018-07-03T09:49:02.593Z,101461.22
2018-07-03T09:51:32.050Z,101460.08
2018-07-03T09:54:01.480Z,101467.09
2018-07-03T09:56:32.041Z,101466.09
2018-07-03T09:59:01.803Z,101468.88
2018-07-03T10:01:31.651Z,101469.19
2018-07-03T10:04:01.819Z,101469.62
2018-07-03T10:06:31.472Z,101476.69
2018-07-03T10:09:01.793Z,101473.70
2018-07-03T10:11:31.307Z,101476.07
2018-07-03T10:14:00.793Z,101476.38
2018-07-03T10:16:30.477Z,101470.74
2018-07-03T10:19:04.389Z,101475.98
2018-07-03T10:21:34.153Z,101479.30
2018-07-03T10:24:03.747Z,101492.30
2018-07-03T10:26:33.327Z,101489.42
2018-07-03T10:29:04.180Z,101496.83
2018-07-03T10:31:33.698Z,101494.80
2018-07-03T10:34:03.318Z,101496.45
2018-07-03T10:36:32.987Z,101492.42
2018-07-03T10:39:02.549Z,101490.61
2018-07-03T10:41:32.459Z,101487.47
2018-07-03T10:44:02.057Z,101487.89
2018-07-03T10:46:31.642Z,101482.16
2018-07-03T10:49:01.061Z,101483.75
2018-07-03T10:51:31.448Z,101481.05
2018-07-03T10:54:00.968Z,101469.47
2018-07-03T10:56:30.500Z,101463.96
2018-07-03T10:59:00.089Z,101466.67
2018-07-03T11:01:29.520Z,101466.27
2018-07-03T11:03:58.964Z,101461.16
2018-07-03T11:06:28.338Z,101451.40
2018-07-03T11:08:57.842Z,101455.59
2018-07-03T11:11:28.161Z,101452.61
2018-07-03T11:13:58.368Z,101461.63
2018-07-03T11:16:27.860Z,101456.36
2018-07-03T11:18:57.515Z,101450.83
2018-07-03T11:21:27.582Z,101447.33
2018-07-03T11:23:57.154Z,101447.22
2018-07-03T11:26:27.360Z,101456.53
2018-07-03T11:28:57.285Z,101451.55
2018-07-03T11:31:26.781Z,101454.08
2018-07-03T11:33:58.961Z,101449.87
2018-07-03T11:36:28.474Z,101450.20
2018-07-03T11:38:58.161Z,101445.22
2018-07-03T11:41:27.643Z,101447.70
2018-07-03T11:43:57.129Z,101441.73
2018-07-03T11:46:26.987Z,101447.22
2018-07-03T11:48:57.769Z,101442.12
2018-07-03T11:51:27.700Z,101441.33
2018-07-03T11:53:57.618Z,101445.30
2018-07-03T11:56:27.289Z,101447.19
2018-07-03T11:59:00.404Z,101445.07
2018-07-03T12:01:30.311Z,101448.09
2018-07-03T12:03:59.740Z,101452.31
2018-07-03T12:06:30.152Z,101447.69
2018-07-03T12:09:01.254Z,101440.34
2018-07-03T12:11:30.739Z,101442.80
2018-07-03T12:14:00.338Z,101435.55
2018-07-03T12:16:30.890Z,101435.44
2018-07-03T12:19:01.136Z,101433.69
2018-07-03T12:21:30.912Z,101436.51
2018-07-03T12:24:00.516Z,101426.27
2018-07-03T12:26:30.098Z,101417.25
2018-07-03T12:28:59.751Z,101425.05
2018-07-03T12:31:29.865Z,101413.13
2018-07-03T12:34:01.091Z,101393.50
2018-07-03T12:36:32.533Z,101397.27
2018-07-03T12:39:02.378Z,101390.28
2018-07-03T12:41:32.478Z,101400.86
2018-07-03T12:44:02.000Z,101396.93
2018-07-03T12:46:31.446Z,101400.50
2018-07-03T12:49:01.020Z,101395.47
2018-07-03T12:51:30.540Z,101399.77
2018-07-03T12:54:00.599Z,101395.69
2018-07-03T12:56:30.897Z,101388.39
2018-07-03T12:59:00.352Z,101393.29
2018-07-03T13:01:30.021Z,101392.72
2018-07-03T13:03:59.284Z,101399.39
2018-07-03T13:06:28.748Z,101394.81
2018-07-03T13:08:58.212Z,101400.43
2018-07-03T13:11:27.656Z,101389.14
2018-07-03T13:13:56.927Z,101398.04
2018-07-03T13:16:26.451Z,101400.09
2018-07-03T13:18:55.643Z,101398.09
2018-07-03T13:21:24.962Z,101393.35
2018-07-03T13:23:54.823Z,101386.98
2018-07-03T13:26:26.027Z,101383.58
2018-07-03T13:28:58.395Z,101394.34
2018-07-03T13:31:28.958Z,101395.45
2018-07-03T13:33:58.443Z,101396.47
2018-07-03T13:36:27.986Z,101390.26
2018-07-03T13:38:57.570Z,101395.87
2018-07-03T13:41:30.035Z,101392.79
2018-07-03T13:43:59.764Z,101391.34
2018-07-03T13:46:30.188Z,101392.11
2018-07-03T13:48:59.646Z,101388.70
2018-07-03T13:51:29.866Z,101389.91
2018-07-03T13:54:00.153Z,101379.20
2018-07-03T13:56:31.097Z,101377.44
2018-07-03T13:59:00.635Z,101378.19
2018-07-03T14:01:31.113Z,101383.71
2018-07-03T14:04:01.633Z,101383.52
2018-07-03T14:06:31.839Z,101377.05
2018-07-03T14:09:01.918Z,101373.91
2018-07-03T14:11:32.054Z,101374.77
2018-07-03T14:14:01.759Z,101388.48
2018-07-03T14:16:31.374Z,101378.45
2018-07-03T14:19:01.101Z,101377.44
2018-07-03T14:21:30.752Z,101372.19
2018-07-03T14:24:01.327Z,101371.08
2018-07-03T14:26:31.095Z,101370.77
2018-07-03T14:29:03.039Z,101374.77
2018-07-03T14:31:32.589Z,101368.23
2018-07-03T14:34:03.061Z,101368.05
2018-07-03T14:36:33.368Z,101370.83
2018-07-03T14:39:04.482Z,101367.12
2018-07-03T14:41:34.373Z,101365.39
2018-07-03T14:44:05.219Z,101373.10
2018-07-03T14:46:34.873Z,101370.70
2018-07-03T14:49:04.590Z,101369.88
2018-07-03T14:51:34.497Z,101364.51
2018-07-03T14:54:04.605Z,101365.40
2018-07-03T14:56:34.645Z,101364.90
2018-07-03T14:59:05.022Z,101365.91
2018-07-03T15:01:34.562Z,101367.45
2018-07-03T15:04:04.068Z,101372.46
2018-07-03T15:06:33.562Z,101370.59
2018-07-03T15:09:04.473Z,101366.31
2018-07-03T15:11:33.876Z,101374.91
2018-07-03T15:14:03.626Z,101367.77
2018-07-03T15:16:33.599Z,101355.10
2018-07-03T15:19:08.322Z,101365.85
2018-07-03T15:21:38.349Z,101361.61
2018-07-03T15:24:08.746Z,101365.41
2018-07-03T15:26:40.078Z,101359.19
2018-07-03T15:29:10.547Z,101359.48
2018-07-03T15:31:40.184Z,101357.31
2018-07-03T15:34:11.343Z,101352.76
2018-07-03T15:36:41.476Z,101355.83
2018-07-03T15:39:13.661Z,101364.36
2018-07-03T15:41:43.077Z,101354.20
2018-07-03T15:44:31.786Z,101360.69
2018-07-03T15:47:01.835Z,101355.75
2018-07-03T15:49:31.390Z,101356.42
2018-07-03T15:52:00.953Z,101361.45
2018-07-03T15:54:30.397Z,101357.81
2018-07-03T15:57:00.390Z,101353.24
2018-07-03T15:59:30.585Z,101352.16
2018-07-03T16:02:00.467Z,101345.91
2018-07-03T16:05:15.895Z,101348.61
2018-07-03T16:08:07.644Z,101342.56
2018-07-03T16:10:37.623Z,101356.20
2018-07-03T16:13:07.149Z,101352.58
2018-07-03T16:15:37.806Z,101350.62
2018-07-03T16:18:07.393Z,101347.28
2018-07-03T16:20:39.209Z,101358.72
2018-07-03T16:23:09.350Z,101360.16
2018-07-03T16:25:39.416Z,101352.09
2018-07-03T16:28:09.838Z,101351.34
2018-07-03T16:30:39.333Z,101349.11
2018-07-03T16:33:08.899Z,101352.67
2018-07-03T16:35:38.228Z,101341.69
2018-07-03T16:38:07.946Z,101349.13
2018-07-03T16:40:37.398Z,101338.58
2018-07-03T16:43:06.947Z,101339.58
2018-07-03T16:45:36.498Z,101336.73
2018-07-03T16:48:06.546Z,101341.89
2018-07-03T16:50:36.057Z,101340.20
2018-07-03T16:53:05.517Z,101335.74
2018-07-03T16:55:34.902Z,101335.80
2018-07-03T16:58:04.363Z,101326.55
2018-07-03T17:00:33.960Z,101332.44
2018-07-03T17:03:03.807Z,101327.66
2018-07-03T17:05:33.376Z,101325.78
2018-07-03T17:08:02.981Z,101333.48
2018-07-03T17:10:32.549Z,101331.69
2018-07-03T17:13:01.961Z,101331.19
2018-07-03T17:15:31.538Z,101324.87
2018-07-03T17:18:01.004Z,101334.44
2018-07-03T17:20:30.341Z,101332.95
2018-07-03T17:22:59.961Z,101326.59
2018-07-03T17:25:29.390Z,101338.92
2018-07-03T17:27:58.903Z,101338.69
2018-07-03T17:30:28.489Z,101352.05
2018-07-03T17:32:58.107Z,101349.91
2018-07-03T17:35:27.662Z,101340.30
2018-07-03T17:37:57.109Z,101345.40
2018-07-03T17:40:43.724Z,101339.63
2018-07-03T17:45:27.645Z,101326.80
2018-07-03T17:47:57.181Z,101336.64
2018-07-03T17:50:27.021Z,101337.95
2018-07-03T17:52:56.469Z,101327.78
2018-07-03T17:55:26.223Z,101338.52
2018-07-03T17:57:56.091Z,101344.28
2018-07-03T18:00:25.666Z,101337.15
2018-07-03T18:02:54.975Z,101337.48
2018-07-03T18:05:25.179Z,101333.22
2018-07-03T18:07:54.937Z,101343.29
2018-07-03T18:10:24.449Z,101340.89
2018-07-03T18:12:54.511Z,101337.25
2018-07-03T18:15:23.996Z,101338.97
2018-07-03T18:17:53.587Z,101338.41
2018-07-03T18:20:23.080Z,101340.30
2018-07-03T18:22:52.861Z,101332.60
2018-07-03T18:25:22.445Z,101329.08
2018-07-03T18:27:51.923Z,101332.84
2018-07-03T18:30:21.555Z,101342.23
2018-07-03T18:32:51.186Z,101344.85
2018-07-03T18:35:20.606Z,101344.98
2018-07-03T18:37:49.887Z,101351.38
2018-07-03T18:40:19.380Z,101351.56
2018-07-03T18:42:48.985Z,101341.64
2018-07-03T18:45:18.997Z,101349.28
2018-07-03T18:47:48.455Z,101345.70
2018-07-03T18:50:17.620Z,101346.20
2018-07-03T18:52:47.192Z,101352.39
2018-07-03T18:55:16.710Z,101349.31
2018-07-03T18:57:46.285Z,101361.42
2018-07-03T19:00:16.964Z,101352.27
2018-07-03T19:02:46.499Z,101353.76
2018-07-03T19:05:15.954Z,101355.08
2018-07-03T19:07:45.814Z,101357.56
2018-07-03T19:10:15.323Z,101354.24
2018-07-03T19:12:45.513Z,101354.91
2018-07-03T19:15:15.126Z,101357.94
2018-07-03T19:17:44.645Z,101360.61
2018-07-03T19:20:14.474Z,101357.16
2018-07-03T19:22:43.959Z,101352.92
2018-07-03T19:25:13.477Z,101367.72
2018-07-03T19:27:43.105Z,101370.02
2018-07-03T19:30:12.755Z,101366.70
2018-07-03T19:32:42.427Z,101367.45
2018-07-03T19:35:12.312Z,101368.91
2018-07-03T19:37:42.099Z,101369.18
2018-07-03T19:40:12.589Z,101370.81
2018-07-03T19:42:57.285Z,101371.87
2018-07-03T19:45:26.802Z,101372.20
2018-07-03T19:47:56.400Z,101372.63
2018-07-03T19:50:27.964Z,101372.87
2018-07-03T19:52:57.117Z,101373.77
2018-07-03T19:55:26.482Z,101379.12
2018-07-03T19:57:56.116Z,101377.97
2018-07-03T20:00:25.992Z,101379.33
2018-07-03T20:02:56.136Z,101378.16
2018-07-03T20:05:25.863Z,101379.64
2018-07-03T20:07:55.537Z,101382.20
2018-07-03T20:10:25.023Z,101382.00
2018-07-03T20:12:55.218Z,101376.11
2018-07-03T20:15:25.408Z,101379.13
2018-07-03T20:17:55.069Z,101378.11
2018-07-03T20:20:26.134Z,101378.53
2018-07-03T20:22:56.937Z,101379.02
2018-07-03T20:25:26.374Z,101376.12
2018-07-03T20:27:55.862Z,101384.64
2018-07-03T20:30:25.462Z,101389.27
2018-07-03T20:32:54.927Z,101383.42
2018-07-03T20:35:24.545Z,101379.77
2018-07-03T20:37:58.581Z,101387.38
2018-07-03T20:41:01.988Z,101383.30
2018-07-03T20:43:34.642Z,101385.95
2018-07-03T20:46:05.172Z,101385.50
2018-07-03T20:48:35.583Z,101390.64
2018-07-03T20:51:08.010Z,101394.45
2018-07-03T20:53:38.087Z,101390.36
2018-07-03T20:56:08.464Z,101391.25
2018-07-03T20:58:38.885Z,101392.17
2018-07-03T21:01:09.327Z,101390.10
2018-07-03T21:03:38.791Z,101392.67
2018-07-03T21:06:10.147Z,101397.84
2018-07-03T21:08:40.469Z,101394.47
2018-07-03T21:11:10.639Z,101392.81
2018-07-03T21:13:40.126Z,101395.77
2018-07-03T21:16:09.640Z,101398.36
2018-07-03T21:18:39.763Z,101391.27
2018-07-03T21:21:09.241Z,101391.23
2018-07-03T21:23:38.631Z,101391.68
2018-07-03T21:26:09.009Z,101390.02
2018-07-03T21:28:39.092Z,101389.20
2018-07-03T21:31:09.790Z,101391.73
2018-07-03T21:33:39.962Z,101394.34
2018-07-03T21:36:09.438Z,101392.28
2018-07-03T21:38:39.211Z,101394.80
2018-07-03T21:41:08.699Z,101393.17
2018-07-03T21:43:38.578Z,101391.12
2018-07-03T21:46:09.615Z,101383.97
2018-07-03T21:48:39.458Z,101389.89
2018-07-03T21:51:09.625Z,101388.72
2018-07-03T21:53:39.780Z,101384.91
2018-07-03T21:56:09.029Z,101390.80
2018-07-03T21:58:39.328Z,101384.54
2018-07-03T22:01:08.893Z,101386.24
2018-07-03T22:03:39.015Z,101387.92
2018-07-03T22:06:09.309Z,101382.45
2018-07-03T22:08:39.370Z,101382.87
2018-07-03T22:11:09.960Z,101384.54
2018-07-03T22:13:41.327Z,101391.70
2018-07-03T22:16:11.722Z,101392.99
2018-07-03T22:18:41.303Z,101388.80
2018-07-03T22:21:11.259Z,101382.13
2018-07-03T22:23:40.713Z,101385.05
2018-07-03T22:26:09.948Z,101387.58
2018-07-03T22:28:40.381Z,101387.58
2018-07-03T22:31:10.170Z,101380.05
2018-07-03T22:33:39.633Z,101384.67
2018-07-03T22:36:09.164Z,101385.52
2018-07-03T22:38:38.765Z,101378.39
2018-07-03T22:41:09.191Z,101378.40
2018-07-03T22:43:39.089Z,101378.41
2018-07-03T22:46:08.565Z,101375.89
2018-07-03T22:48:38.045Z,101373.81
2018-07-03T22:51:10.253Z,101376.31
2018-07-03T22:53:41.404Z,101384.30
2018-07-03T22:56:12.322Z,101381.33
2018-07-03T22:58:41.761Z,101373.39
2018-07-03T23:01:15.595Z,101379.27
2018-07-03T23:03:45.318Z,101378.00
2018-07-03T23:06:14.852Z,101378.02
2018-07-03T23:08:44.670Z,101378.42
2018-07-03T23:11:14.946Z,101378.02
2018-07-03T23:13:45.407Z,101379.67
2018-07-03T23:16:14.878Z,101377.17
2018-07-03T23:18:44.358Z,101376.76
2018-07-03T23:21:13.804Z,101375.90
2018-07-03T23:23:44.497Z,101370.48
2018-07-03T23:26:14.245Z,101375.91
2018-07-03T23:28:43.892Z,101372.98
2018-07-03T23:31:13.474Z,101370.05
2018-07-03T23:33:44.122Z,101367.97
2018-07-03T23:36:13.632Z,101373.41
2018-07-03T23:38:43.485Z,101370.89
2018-07-03T23:41:13.172Z,101369.66
2018-07-03T23:43:42.658Z,101361.68
2018-07-03T23:46:10.421Z,101365.02
2018-07-03T23:48:56.870Z,101365.87
2018-07-03T23:51:43.466Z,101364.61
2018-07-03T23:54:31.284Z,101370.44
2018-07-03T23:57:17.752Z,101360.80
2018-07-03T23:59:58.293Z,101362.89
